createdAt,value
2023-01-28T02:17:16.827Z,25.20
2023-01-28T02:19:54.439Z,23.80
2023-01-28T02:22:45.237Z,24.20
2023-01-28T02:25:28.614Z,24.10
2023-01-28T02:28:12.358Z,24.20
2023-01-28T02:30:43.246Z,23.40
2023-01-28T02:33:19.670Z,23.60
2023-01-28T02:35:50.214Z,21.80
2023-01-28T02:38:37.604Z,22.50
2023-01-28T02:41:11.768Z,23.00
2023-01-28T02:43:41.405Z,25.10
2023-01-28T02:46:44.755Z,26.70
2023-01-28T02:49:43.357Z,24.00
2023-01-28T02:53:01.301Z,22.50
2023-01-28T02:55:31.759Z,20.20
2023-01-28T02:58:09.389Z,25.00
2023-01-28T03:01:10.430Z,21.70
2023-01-28T03:04:09.379Z,21.80
2023-01-28T03:06:49.157Z,21.20
2023-01-28T03:09:23.925Z,18.30
2023-01-28T03:12:25.695Z,21.30
2023-01-28T03:15:17.040Z,22.40
2023-01-28T03:18:16.487Z,18.90
2023-01-28T03:21:12.724Z,20.10
2023-01-28T03:24:19.123Z,20.30
2023-01-28T03:27:13.501Z,20.20
2023-01-28T03:30:01.180Z,20.80
2023-01-28T03:32:48.100Z,19.30
2023-01-28T03:35:35.741Z,17.40
2023-01-28T03:38:18.915Z,17.90
2023-01-28T03:40:56.317Z,18.10
2023-01-28T03:43:24.647Z,16.10
2023-01-28T03:45:53.906Z,17.70
2023-01-28T03:48:24.047Z,16.80
2023-01-28T03:50:53.465Z,16.40
2023-01-28T03:53:21.949Z,19.20
2023-01-28T03:55:52.777Z,18.50
2023-01-28T03:58:21.537Z,18.80
2023-01-28T04:00:49.899Z,17.30
2023-01-28T04:03:19.487Z,17.30
2023-01-28T04:06:08.934Z,17.70
2023-01-28T04:08:53.756Z,19.20
2023-01-28T04:11:34.379Z,17.80
2023-01-28T04:14:05.142Z,17.50
2023-01-28T04:16:45.212Z,19.30
2023-01-28T04:19:14.027Z,19.20
2023-01-28T04:21:42.960Z,17.50
2023-01-28T04:24:15.813Z,17.40
2023-01-28T04:26:44.390Z,17.50
2023-01-28T04:29:12.832Z,17.70
2023-01-28T04:31:41.343Z,15.60
2023-01-28T04:34:37.583Z,16.80
2023-01-28T04:37:16.063Z,17.50
2023-01-28T04:40:03.107Z,15.00
2023-01-28T04:42:55.320Z,17.60
2023-01-28T04:45:36.253Z,17.70
2023-01-28T04:48:15.847Z,16.80
2023-01-28T04:51:07.982Z,16.30
2023-01-28T04:53:41.823Z,17.80
2023-01-28T04:56:25.523Z,16.00
2023-01-28T04:58:54.078Z,14.20
2023-01-28T05:01:22.880Z,16.50
2023-01-28T05:03:51.622Z,18.40
2023-01-28T05:06:26.572Z,16.60
2023-01-28T05:08:58.217Z,16.40
2023-01-28T05:11:26.816Z,15.20
2023-01-28T05:14:00.130Z,16.90
2023-01-28T05:16:35.304Z,16.10
2023-01-28T05:19:05.146Z,16.30
2023-01-28T05:21:42.802Z,16.10
2023-01-28T05:24:21.672Z,17.90
2023-01-28T05:26:50.416Z,15.50
2023-01-28T05:29:18.922Z,14.40
2023-01-28T05:31:48.110Z,15.50
2023-01-28T05:34:16.709Z,14.20
2023-01-28T05:36:45.190Z,12.90
2023-01-28T05:39:34.575Z,15.80
2023-01-28T05:42:02.968Z,16.20
2023-01-28T05:44:33.483Z,14.30
2023-01-28T05:47:14.460Z,14.90
2023-01-28T05:49:51.304Z,17.10
2023-01-28T05:52:38.226Z,15.00
2023-01-28T05:55:10.342Z,15.40
2023-01-28T05:57:39.214Z,16.00
2023-01-28T06:00:09.760Z,13.20
2023-01-28T06:02:43.610Z,14.70
2023-01-28T06:05:15.052Z,15.40
2023-01-28T06:07:49.812Z,16.30
2023-01-28T06:10:18.308Z,13.60
2023-01-28T06:12:47.910Z,13.60
2023-01-28T06:15:50.257Z,15.70
2023-01-28T10:21:23.093Z,17.30
2023-01-28T10:23:57.402Z,18.80
2023-01-28T10:26:30.239Z,17.30
2023-01-28T10:29:01.002Z,18.20
2023-01-28T10:31:33.567Z,19.50
2023-01-28T10:34:02.204Z,22.20
2023-01-28T10:36:30.607Z,20.70
2023-01-28T10:38:59.118Z,20.40
2023-01-28T10:41:27.458Z,21.60
2023-01-28T10:43:57.057Z,19.70
2023-01-28T10:46:30.633Z,18.50
2023-01-28T10:49:15.799Z,18.50
2023-01-28T10:51:44.476Z,19.90
2023-01-28T10:54:27.999Z,20.40
2023-01-28T10:56:59.492Z,18.40
2023-01-28T10:59:28.729Z,19.60
2023-01-28T11:01:58.894Z,18.10
2023-01-28T11:04:31.545Z,18.00
2023-01-28T11:07:04.895Z,18.10
2023-01-28T11:09:37.841Z,19.50
2023-01-28T11:12:22.869Z,19.80
2023-01-28T11:15:01.935Z,20.50
2023-01-28T11:17:32.440Z,20.60
2023-01-28T11:20:12.980Z,19.60
2023-01-28T11:22:43.291Z,19.70
2023-01-28T11:25:32.757Z,20.70
2023-01-28T11:28:02.419Z,19.10
2023-01-28T11:30:40.473Z,22.50
2023-01-28T11:33:19.390Z,18.90
2023-01-28T11:35:58.417Z,20.00
2023-01-28T11:38:27.230Z,18.40
2023-01-28T11:40:57.192Z,19.80
2023-01-28T11:43:26.696Z,17.30
2023-01-28T11:46:13.555Z,18.50
2023-01-28T11:48:43.906Z,19.10
2023-01-28T11:51:35.162Z,20.20
2023-01-28T11:54:25.646Z,18.20
2023-01-28T11:57:25.034Z,19.60
2023-01-28T12:00:19.456Z,19.10
2023-01-28T12:02:55.089Z,19.10
2023-01-28T12:05:46.062Z,18.30
2023-01-28T12:08:41.553Z,16.10
2023-01-28T12:11:47.904Z,17.90
2023-01-28T12:14:22.087Z,17.10
2023-01-28T12:16:59.382Z,19.00
2023-01-28T12:19:43.454Z,19.70
2023-01-28T12:22:18.928Z,18.00
2023-01-28T12:25:10.211Z,16.90
2023-01-28T12:27:56.350Z,19.10
2023-01-28T12:30:46.741Z,19.00
2023-01-28T12:33:18.115Z,19.40
2023-01-28T12:36:10.805Z,20.20
2023-01-28T12:38:59.249Z,19.50
2023-01-28T12:41:30.880Z,19.40
2023-01-28T12:44:13.869Z,18.60
2023-01-28T12:47:04.265Z,18.70
2023-01-28T12:49:34.165Z,19.50
2023-01-28T12:52:08.639Z,19.70
2023-01-28T12:54:57.272Z,19.30
2023-01-28T12:57:30.681Z,18.70
2023-01-28T13:00:44.656Z,21.70
2023-01-28T13:03:27.208Z,22.50
2023-01-28T13:06:22.723Z,20.10
2023-01-28T13:08:51.346Z,21.60
2023-01-28T13:11:20.033Z,25.10
2023-01-28T13:13:48.703Z,24.80
2023-01-28T13:16:19.394Z,25.30
2023-01-28T13:18:49.873Z,20.30
2023-01-28T13:21:24.220Z,20.50
2023-01-28T13:24:01.943Z,19.30
2023-01-28T13:26:38.509Z,18.00
2023-01-28T13:29:28.353Z,15.50
2023-01-28T13:31:59.343Z,16.20
2023-01-28T13:34:33.984Z,16.60
2023-01-28T13:37:16.786Z,17.30
2023-01-28T13:40:12.579Z,17.00
2023-01-28T13:42:41.316Z,17.00
2023-01-28T13:45:15.903Z,19.50
2023-01-28T13:47:49.062Z,16.60
2023-01-28T13:50:20.877Z,19.00
2023-01-28T13:53:03.128Z,17.20
2023-01-28T13:55:44.899Z,17.30
2023-01-28T13:58:29.400Z,18.50
2023-01-28T14:01:07.091Z,16.90
2023-01-28T14:03:54.260Z,18.90
2023-01-28T14:06:22.664Z,18.70
2023-01-28T14:09:12.408Z,20.10
2023-01-28T14:12:19.784Z,20.50
2023-01-28T14:14:53.032Z,18.20
2023-01-28T14:17:33.608Z,19.90
2023-01-28T14:20:02.293Z,19.20
2023-01-28T14:22:31.128Z,21.10
2023-01-28T14:25:00.976Z,22.10
2023-01-28T14:27:36.374Z,19.10
2023-01-28T14:30:14.235Z,20.40
2023-01-28T14:32:50.647Z,21.20
2023-01-28T14:35:31.156Z,20.40
2023-01-28T14:37:59.583Z,20.20
2023-01-28T14:40:29.039Z,19.10
2023-01-28T14:42:57.522Z,21.10
2023-01-28T14:45:39.359Z,21.10
2023-01-28T14:48:51.303Z,17.00
2023-01-28T14:51:34.660Z,15.90
2023-01-28T14:54:02.996Z,17.60
2023-01-28T14:56:38.708Z,16.50
2023-01-28T14:59:15.930Z,17.60
2023-01-28T15:01:46.285Z,17.10
2023-01-28T15:04:24.636Z,17.60
2023-01-28T15:06:53.304Z,18.90
2023-01-28T15:09:22.808Z,17.80
2023-01-28T15:11:52.614Z,18.30
2023-01-28T15:14:31.425Z,17.10
2023-01-28T15:17:00.068Z,17.80
2023-01-28T15:19:38.335Z,18.50
2023-01-28T15:22:08.883Z,19.70
2023-01-28T15:24:37.510Z,18.30
2023-01-28T15:27:05.867Z,16.90
2023-01-28T15:29:37.121Z,17.50
2023-01-28T15:32:30.085Z,18.60
2023-01-28T15:35:01.688Z,18.90
2023-01-28T15:37:30.356Z,18.80
2023-01-28T15:40:06.359Z,16.30
2023-01-28T15:42:34.929Z,17.00
2023-01-28T15:45:04.649Z,18.90
2023-01-28T15:47:34.081Z,19.30
2023-01-28T15:50:06.783Z,20.60
2023-01-28T15:52:39.664Z,19.50
2023-01-28T15:55:21.645Z,19.70
2023-01-28T15:57:50.306Z,20.10
2023-01-28T16:00:22.173Z,21.90
2023-01-28T16:02:52.034Z,22.60
2023-01-28T16:05:28.979Z,21.70
2023-01-28T16:07:58.619Z,21.50
2023-01-28T16:10:28.540Z,20.50
2023-01-28T16:13:14.253Z,16.90
2023-01-28T16:15:47.045Z,20.20
2023-01-28T16:18:24.675Z,17.60
2023-01-28T16:20:54.022Z,19.30
2023-01-28T16:23:23.471Z,18.40
2023-01-28T16:26:25.077Z,16.70
2023-01-28T16:28:53.612Z,18.90
2023-01-28T16:31:22.147Z,17.90
2023-01-28T16:33:52.279Z,21.20
2023-01-28T16:36:20.891Z,19.90
2023-01-28T16:38:49.390Z,20.40
2023-01-28T16:41:26.181Z,20.10
2023-01-28T16:43:54.789Z,21.60
2023-01-28T16:46:24.035Z,20.90
2023-01-28T16:48:55.611Z,22.40
2023-01-28T16:51:24.161Z,19.60
2023-01-28T16:53:52.449Z,21.10
2023-01-28T16:56:44.066Z,21.80
2023-01-28T16:59:15.033Z,21.00
2023-01-28T17:01:44.284Z,22.00
2023-01-28T17:04:13.446Z,21.40
2023-01-28T17:06:43.314Z,20.60
2023-01-28T17:09:13.049Z,20.40
2023-01-28T17:11:42.227Z,20.40
2023-01-28T17:14:11.183Z,20.30
2023-01-28T17:16:39.877Z,20.90
2023-01-28T17:19:08.465Z,21.40
2023-01-28T17:21:37.099Z,19.40
2023-01-28T17:24:05.913Z,20.80
2023-01-28T17:26:38.341Z,20.90
2023-01-28T17:29:07.862Z,20.80
2023-01-28T17:31:36.843Z,19.50
2023-01-28T17:34:07.256Z,20.60
2023-01-28T17:36:38.319Z,15.40
2023-01-28T17:39:07.681Z,18.30
2023-01-28T17:41:36.833Z,20.70
2023-01-28T17:44:05.362Z,18.40
2023-01-28T17:46:34.828Z,20.30
2023-01-28T17:49:03.574Z,20.50
2023-01-28T17:51:31.997Z,20.20
2023-01-28T17:54:02.070Z,19.20
2023-01-28T17:56:31.318Z,16.00
2023-01-28T17:59:04.645Z,19.10
2023-01-28T18:01:34.260Z,17.40
2023-01-28T18:04:04.203Z,18.20
2023-01-28T18:06:35.786Z,18.80
2023-01-28T22:15:04.406Z,20.70
2023-01-28T22:17:33.531Z,20.60
2023-01-28T22:20:01.909Z,21.20
2023-01-28T22:22:30.610Z,22.10
2023-01-28T22:25:00.076Z,23.20
2023-01-28T22:27:28.957Z,24.70
2023-01-28T22:29:57.627Z,25.90
2023-01-28T22:32:26.836Z,25.30
2023-01-28T22:34:55.196Z,24.40
2023-01-28T22:37:24.007Z,23.00
2023-01-28T22:39:54.465Z,23.20
2023-01-28T22:42:26.377Z,21.10
2023-01-28T22:44:54.811Z,23.70
2023-01-28T22:47:23.085Z,21.50
2023-01-28T22:49:51.480Z,22.90
2023-01-28T22:52:19.820Z,25.70
2023-01-28T22:54:48.637Z,23.00
2023-01-28T22:57:16.934Z,25.50
2023-01-28T22:59:59.298Z,26.90
2023-01-28T23:02:28.848Z,25.10
2023-01-28T23:04:57.202Z,24.80
2023-01-28T23:07:25.966Z,25.10
2023-01-28T23:09:54.634Z,22.10
2023-01-28T23:12:23.381Z,21.50
2023-01-28T23:15:10.886Z,21.00
2023-01-28T23:18:12.783Z,24.10
2023-01-28T23:21:00.685Z,22.10
2023-01-28T23:23:47.705Z,22.50
2023-01-28T23:26:16.141Z,23.10
2023-01-28T23:28:44.405Z,23.50
2023-01-28T23:31:12.914Z,23.50
2023-01-28T23:33:41.624Z,22.20
2023-01-28T23:36:09.983Z,20.80
2023-01-28T23:38:38.351Z,22.70
2023-01-28T23:41:07.005Z,22.10
2023-01-28T23:43:35.301Z,23.90
2023-01-28T23:46:03.809Z,22.80
2023-01-28T23:48:32.178Z,23.60
2023-01-28T23:51:00.677Z,21.70
2023-01-28T23:53:29.922Z,23.10
2023-01-28T23:55:58.498Z,24.40
2023-01-28T23:58:42.686Z,28.00
